Hauptseite
METAR-TAF:

METAR-TAF

Flughäfen :

Flughafen Bern-Belp

Bern, Schweiz

Breite: 46-55N, Länge: 007-30E, Höhe: 505 m

Beobachtung

Neuester Wetterbericht von vor 30 Minuten, um 12:20 UTC
Wind 7 kt aus Nord, variierte zwischen Nord/Nordwest und Ost/Nordost
Temperatur 14°C
Luftfeuchtigkeit 51%
Luftdruck 1025 hPa
Sichtweite 10 km oder mehr
keine Wolken unter 1500 m und keine Kumulonimbus oder Gewitterwolken

METAR: LSZB 221220Z 36007KT 330V060 CAVOK 14/04 Q1025 NOSIG

Zeit: 14:50 (12:50 UTC)

Prognose

Neuester Wetterbericht von vor 1 Stunde und 25 Minuten, um 11:25 UTC
Gültige Prognose vom 22 um 12 UTC bis 22 um 21 UTC
Wind 3 kt aus unterschiedlichen Richtungen
Sichtweite 10 km oder mehr
keine Wolken unter 1500 m und keine Kumulonimbus oder Gewitterwolken
Zeitweise
vom 22 um 12 UTC bis 22 um 16 UTC
Wind 10 kt aus Nord/Nordost

TAF: LSZB 221125Z 2212/2221 VRB03KT CAVOK TEMPO 2212/2216 03010KT

Wetterbeobachtungen und Prognosen von mehr als 4000 Flughäfen (METAR und TAF Bericht).

Die verfügbaren Stationen werden durch gelbe und rote Markierungen auf der Karte dargestellt.

Führen Sie die Maus auf sie, um den Namen der Station zu sehen.

Darauf klicken, um die Beobachtung von Wetterbeobachtungen und Prognosen zu sehen.

Um die Karte zu ändern : klicken Sie auf den grünen Tasten mit einem schwarzen Kreuz Zum Vergrößern, auf den grünen Button mit einem Gedankenstrich zu verkleinern, oder auf die grünen Pfeile für benachbarte Karten.


METAR-TAF: